Moralzarzal, Spain
Current Conditions -  °F | °C
As of 9:00 PM on Tuesday 27 Jan 2015 (Local Time) from LEVS Reporting Station
Clear Clear  
Wind Chill: 43°   Ceiling: Unl
Heat Index: 43°   Visibility: 6mi
Dew Point: 32°   Wind: 1mph
Humidity: 66%   Direction: NA
Pressure: 30.3"   Gusts: NA
Location:  40.68°N, 3.97°W
Report Text: LEVS 272000Z VRB01KT CAVOK 06/00 Q1026
Loading
Personal Weather Stations






























Interactive Weather Map New forecast layout! Learn more

10-Day Weather Forecast

Advertisements
Track Severe Weather on mobile